Paradise Park, Pennsylvania
Current Conditions -  °F | °C
As of 1:56 AM on Sunday 26 Oct 2014 (Local Time) from KCXY Reporting Station
Overcast Overcast  
Wind Chill: 63°   Ceiling: 6000
Heat Index: 63°   Visibility: 10mi
Dew Point: 47°   Wind: 8mph
Humidity: 56%   Direction: 260°W
Pressure: 29.63"   Gusts: NA
Location:  40.4189°N, 77.1972°W
Report Text: KCXY 260556Z AUTO 26007KT 10SM BKN060 BKN075 OVC085 17/08 A2963 RMK AO2 SLP033 60000 T01720083 10178 20161 58003
Loading
Personal Weather Stations






























Interactive Weather Map
Tropical Storm Tracking
New forecast layout! Learn more

10-Day Weather Forecast

Advertisements
Track Severe Weather on mobile